CheckWX is a tool to help pilots better visualize weather data.  It is not intended as a substitute for an official pre-flight weather briefing.

09:27:36 UTC

KGEY METAR
South Big Horn County Airport
Greybull, Wyoming, USA
Current

35 mins ago

KGEY 200853Z AUTO 00000KT 10SM CLR M19/M20 A2967 RMK AO2 SLP117 T11891200 56013
Observed
Feb-20 @ 08:53 UTC
Visibility
16,093 meters
Flight Rules
VFR
Cloud Levels
  • Clear skies
Temperature
-19°C / -2°F
Dewpoint
-20°C / -4°F
Humidity
92%
Altimeter
29.67" Hg
Pressure
1011.7 hPa
Previous

2 hours ago

KGEY 200753Z AUTO 19003KT 10SM CLR M18/M20 A2968 RMK AO2 SLP121 T11831200
Observed
Feb-20 @ 07:53 UTC
Wind
  • 190° at 3 KTS
Visibility
16,093 meters
Flight Rules
VFR
Cloud Levels
  • Clear skies
Temperature
-18°C / -0°F
Dewpoint
-20°C / -4°F
Humidity
84%
Altimeter
29.68" Hg
Pressure
1012.1 hPa
Previous

3 hours ago

KGEY 200653Z AUTO 13003KT 10SM CLR M17/M19 A2970 RMK AO2 SLP127 T11721189 410611172
Observed
Feb-20 @ 06:53 UTC
Wind
  • 130° at 3 KTS
Visibility
16,093 meters
Flight Rules
VFR
Cloud Levels
  • Clear skies
Temperature
-17°C / 1°F
Dewpoint
-19°C / -2°F
Humidity
85%
Altimeter
29.7" Hg
Pressure
1012.7 hPa